sensor_id;sensor_type;location;lat;lon;timestamp;pressure;altitude;pressure_sealevel;temperature;humidity
53550;BME280;67273;52.914;-0.982;2023-04-25T00:00:20;101327.13;;;18.72;43.11
53550;BME280;67273;52.914;-0.982;2023-04-25T00:02:46;101330.94;;;18.71;43.08
53550;BME280;67273;52.914;-0.982;2023-04-25T00:05:12;101326.53;;;18.70;43.13
53550;BME280;67273;52.914;-0.982;2023-04-25T00:07:40;101327.00;;;18.67;43.13
53550;BME280;67273;52.914;-0.982;2023-04-25T00:10:08;101328.66;;;18.68;43.04
53550;BME280;67273;52.914;-0.982;2023-04-25T00:12:34;101333.47;;;18.66;43.15
53550;BME280;67273;52.914;-0.982;2023-04-25T00:15:03;101332.66;;;18.66;42.97
53550;BME280;67273;52.914;-0.982;2023-04-25T00:17:28;101334.78;;;18.64;43.09
53550;BME280;67273;52.914;-0.982;2023-04-25T00:19:55;101334.78;;;18.64;42.99
53550;BME280;67273;52.914;-0.982;2023-04-25T00:22:21;101333.09;;;18.62;42.95
53550;BME280;67273;52.914;-0.982;2023-04-25T00:24:47;101329.56;;;18.62;42.98
53550;BME280;67273;52.914;-0.982;2023-04-25T00:27:13;101328.91;;;18.60;43.00
53550;BME280;67273;52.914;-0.982;2023-04-25T00:29:39;101331.03;;;18.58;43.21
53550;BME280;67273;52.914;-0.982;2023-04-25T00:32:06;101338.38;;;18.57;43.04
53550;BME280;67273;52.914;-0.982;2023-04-25T00:34:31;101334.81;;;18.57;42.96
53550;BME280;67273;52.914;-0.982;2023-04-25T00:36:57;101338.59;;;18.56;42.84
53550;BME280;67273;52.914;-0.982;2023-04-25T00:39:23;101326.06;;;18.55;43.04
53550;BME280;67273;52.914;-0.982;2023-04-25T00:41:50;101329.81;;;18.54;42.94
53550;BME280;67273;52.914;-0.982;2023-04-25T00:44:18;101338.19;;;18.52;43.05
53550;BME280;67273;52.914;-0.982;2023-04-25T00:46:44;101338.19;;;18.52;42.92
53550;BME280;67273;52.914;-0.982;2023-04-25T00:49:12;101342.00;;;18.51;43.01
53550;BME280;67273;52.914;-0.982;2023-04-25T00:51:41;101337.81;;;18.49;43.09
53550;BME280;67273;52.914;-0.982;2023-04-25T00:54:07;101329.66;;;18.49;42.98
53550;BME280;67273;52.914;-0.982;2023-04-25T00:56:33;101329.88;;;18.47;42.71
53550;BME280;67273;52.914;-0.982;2023-04-25T00:58:58;101327.34;;;18.46;43.00
53550;BME280;67273;52.914;-0.982;2023-04-25T01:01:24;101327.34;;;18.46;43.06
53550;BME280;67273;52.914;-0.982;2023-04-25T01:03:50;101327.59;;;18.44;42.96
53550;BME280;67273;52.914;-0.982;2023-04-25T01:06:19;101331.16;;;18.45;43.01
53550;BME280;67273;52.914;-0.982;2023-04-25T01:08:45;101326.75;;;18.43;42.95
53550;BME280;67273;52.914;-0.982;2023-04-25T01:11:11;101323.44;;;18.41;42.96
53550;BME280;67273;52.914;-0.982;2023-04-25T01:13:36;101321.78;;;18.40;42.99
53550;BME280;67273;52.914;-0.982;2023-04-25T01:16:04;101324.50;;;18.40;42.93
53550;BME280;67273;52.914;-0.982;2023-04-25T01:18:29;101316.56;;;18.39;42.80
53550;BME280;67273;52.914;-0.982;2023-04-25T01:20:55;101312.97;;;18.38;42.89
53550;BME280;67273;52.914;-0.982;2023-04-25T01:23:24;101319.50;;;18.37;42.71
53550;BME280;67273;52.914;-0.982;2023-04-25T01:25:51;101317.81;;;18.36;42.71
53550;BME280;67273;52.914;-0.982;2023-04-25T01:28:17;101317.00;;;18.36;42.62
53550;BME280;67273;52.914;-0.982;2023-04-25T01:30:43;101326.19;;;18.35;42.81
53550;BME280;67273;52.914;-0.982;2023-04-25T01:33:10;101324.31;;;18.35;42.81
53550;BME280;67273;52.914;-0.982;2023-04-25T01:35:36;101323.69;;;18.33;42.90
53550;BME280;67273;52.914;-0.982;2023-04-25T01:38:03;101331.63;;;18.35;42.85
53550;BME280;67273;52.914;-0.982;2023-04-25T01:40:34;101332.69;;;18.34;42.78
53550;BME280;67273;52.914;-0.982;2023-04-25T01:43:00;101331.84;;;18.33;42.80
53550;BME280;67273;52.914;-0.982;2023-04-25T01:45:27;101332.09;;;18.32;42.86
53550;BME280;67273;52.914;-0.982;2023-04-25T01:47:55;101335.03;;;18.30;42.81
53550;BME280;67273;52.914;-0.982;2023-04-25T01:50:25;101343.19;;;18.30;42.78
53550;BME280;67273;52.914;-0.982;2023-04-25T01:52:51;101347.78;;;18.30;42.63
53550;BME280;67273;52.914;-0.982;2023-04-25T01:55:18;101352.59;;;18.28;42.64
53550;BME280;67273;52.914;-0.982;2023-04-25T01:57:55;101350.09;;;18.26;42.75
53550;BME280;67273;52.914;-0.982;2023-04-25T02:00:33;101344.66;;;18.26;42.76
53550;BME280;67273;52.914;-0.982;2023-04-25T02:02:58;101350.09;;;18.26;42.62
53550;BME280;67273;52.914;-0.982;2023-04-25T02:05:34;101351.38;;;18.23;42.87
53550;BME280;67273;52.914;-0.982;2023-04-25T02:08:02;101355.16;;;18.22;42.82
53550;BME280;67273;52.914;-0.982;2023-04-25T02:10:28;101350.56;;;18.23;42.71
53550;BME280;67273;52.914;-0.982;2023-04-25T02:13:24;101346.38;;;18.20;43.09
53550;BME280;67273;52.914;-0.982;2023-04-25T02:15:49;101350.16;;;18.19;42.68
53550;BME280;67273;52.914;-0.982;2023-04-25T02:18:18;101343.06;;;18.18;42.60
53550;BME280;67273;52.914;-0.982;2023-04-25T02:20:45;101348.50;;;18.18;42.72
53550;BME280;67273;52.914;-0.982;2023-04-25T02:23:11;101346.00;;;18.17;42.66
53550;BME280;67273;52.914;-0.982;2023-04-25T02:25:36;101352.50;;;18.16;42.76
53550;BME280;67273;52.914;-0.982;2023-04-25T02:28:02;101349.78;;;18.16;42.73
53550;BME280;67273;52.914;-0.982;2023-04-25T02:30:30;101358.16;;;18.14;42.63
53550;BME280;67273;52.914;-0.982;2023-04-25T02:32:55;101360.66;;;18.16;42.74
53550;BME280;67273;52.914;-0.982;2023-04-25T02:35:22;101357.28;;;18.14;42.63
53550;BME280;67273;52.914;-0.982;2023-04-25T02:37:47;101359.19;;;18.13;42.69
53550;BME280;67273;52.914;-0.982;2023-04-25T02:40:13;101354.81;;;18.12;42.71
53550;BME280;67273;52.914;-0.982;2023-04-25T02:42:39;101347.69;;;18.11;42.83
53550;BME280;67273;52.914;-0.982;2023-04-25T02:45:07;101346.88;;;18.11;42.51
53550;BME280;67273;52.914;-0.982;2023-04-25T02:47:38;101350.63;;;18.10;42.42
53550;BME280;67273;52.914;-0.982;2023-04-25T02:50:10;101343.53;;;18.09;42.63
53550;BME280;67273;52.914;-0.982;2023-04-25T02:52:38;101339.97;;;18.08;42.53
53550;BME280;67273;52.914;-0.982;2023-04-25T02:55:12;101352.75;;;18.08;42.47
53550;BME280;67273;52.914;-0.982;2023-04-25T02:57:40;101348.34;;;18.07;42.62
53550;BME280;67273;52.914;-0.982;2023-04-25T03:00:12;101355.69;;;18.06;42.63
53550;BME280;67273;52.914;-0.982;2023-04-25T03:02:44;101363.00;;;18.05;42.61
53550;BME280;67273;52.914;-0.982;2023-04-25T03:05:12;101368.66;;;18.04;42.67
53550;BME280;67273;52.914;-0.982;2023-04-25T03:07:41;101358.81;;;18.03;42.51
53550;BME280;67273;52.914;-0.982;2023-04-25T03:10:11;101361.53;;;18.03;42.58
53550;BME280;67273;52.914;-0.982;2023-04-25T03:12:40;101364.50;;;18.01;42.58
53550;BME280;67273;52.914;-0.982;2023-04-25T03:15:08;101367.22;;;18.01;42.63
53550;BME280;67273;52.914;-0.982;2023-04-25T03:17:33;101372.03;;;17.99;42.49
53550;BME280;67273;52.914;-0.982;2023-04-25T03:20:01;101369.53;;;17.98;42.59
53550;BME280;67273;52.914;-0.982;2023-04-25T03:22:28;101380.19;;;17.99;42.54
53550;BME280;67273;52.914;-0.982;2023-04-25T03:24:54;101380.44;;;17.98;42.48
53550;BME280;67273;52.914;-0.982;2023-04-25T03:27:19;101385.00;;;17.97;42.59
53550;BME280;67273;52.914;-0.982;2023-04-25T03:29:45;101390.44;;;17.97;42.57
53550;BME280;67273;52.914;-0.982;2023-04-25T03:32:11;101374.56;;;17.94;42.44
53550;BME280;67273;52.914;-0.982;2023-04-25T03:34:37;101380.84;;;17.95;42.49
53550;BME280;67273;52.914;-0.982;2023-04-25T03:37:04;101376.66;;;17.92;42.53
53550;BME280;67273;52.914;-0.982;2023-04-25T03:39:34;101379.38;;;17.92;42.45
53550;BME280;67273;52.914;-0.982;2023-04-25T03:42:00;101387.75;;;17.91;42.41
53550;BME280;67273;52.914;-0.982;2023-04-25T03:44:28;101383.16;;;17.91;42.41
53550;BME280;67273;52.914;-0.982;2023-04-25T03:46:55;101388.00;;;17.89;42.62
53550;BME280;67273;52.914;-0.982;2023-04-25T03:49:24;101393.44;;;17.89;42.59
53550;BME280;67273;52.914;-0.982;2023-04-25T03:52:04;101397.19;;;17.88;42.51
53550;BME280;67273;52.914;-0.982;2023-04-25T03:54:35;101398.00;;;17.89;42.46
53550;BME280;67273;52.914;-0.982;2023-04-25T03:57:15;101400.13;;;17.86;42.41
53550;BME280;67273;52.914;-0.982;2023-04-25T03:59:43;101397.56;;;17.85;42.56
53550;BME280;67273;52.914;-0.982;2023-04-25T04:02:13;101402.19;;;17.84;42.50
53550;BME280;67273;52.914;-0.982;2023-04-25T04:04:39;101404.09;;;17.84;42.46
53550;BME280;67273;52.914;-0.982;2023-04-25T04:07:08;101400.50;;;17.83;42.47
53550;BME280;67273;52.914;-0.982;2023-04-25T04:09:38;101400.50;;;17.83;42.29
53550;BME280;67273;52.914;-0.982;2023-04-25T04:12:12;101399.69;;;17.83;42.46
53550;BME280;67273;52.914;-0.982;2023-04-25T04:14:40;101407.22;;;17.81;42.35
53550;BME280;67273;52.914;-0.982;2023-04-25T04:17:06;101408.25;;;17.80;42.42
53550;BME280;67273;52.914;-0.982;2023-04-25T04:19:33;101410.16;;;17.79;42.42
53550;BME280;67273;52.914;-0.982;2023-04-25T04:22:11;101412.03;;;17.79;42.42
53550;BME280;67273;52.914;-0.982;2023-04-25T04:24:38;101413.06;;;17.78;42.21
53550;BME280;67273;52.914;-0.982;2023-04-25T04:27:06;101411.44;;;17.77;42.50
53550;BME280;67273;52.914;-0.982;2023-04-25T04:29:38;101420.41;;;17.77;42.45
53550;BME280;67273;52.914;-0.982;2023-04-25T04:32:10;101418.50;;;17.78;42.42
53550;BME280;67273;52.914;-0.982;2023-04-25T04:34:36;101420.63;;;17.76;42.47
53550;BME280;67273;52.914;-0.982;2023-04-25T04:37:03;101426.06;;;17.76;42.29
53550;BME280;67273;52.914;-0.982;2023-04-25T04:39:30;101430.88;;;17.74;42.17
53550;BME280;67273;52.914;-0.982;2023-04-25T04:42:17;101430.25;;;17.72;42.38
53550;BME280;67273;52.914;-0.982;2023-04-25T04:45:07;101437.34;;;17.73;42.15
53550;BME280;67273;52.914;-0.982;2023-04-25T04:48:04;101434.84;;;17.71;42.16
53550;BME280;67273;52.914;-0.982;2023-04-25T04:50:57;101440.50;;;17.70;42.21
53550;BME280;67273;52.914;-0.982;2023-04-25T04:53:49;101441.56;;;17.68;42.19
53550;BME280;67273;52.914;-0.982;2023-04-25T04:56:43;101452.41;;;17.68;42.24
53550;BME280;67273;52.914;-0.982;2023-04-25T04:59:34;101460.78;;;17.67;42.13
53550;BME280;67273;52.914;-0.982;2023-04-25T05:02:27;101466.22;;;17.67;42.10
53550;BME280;67273;52.914;-0.982;2023-04-25T05:05:06;101459.13;;;17.66;42.14
53550;BME280;67273;52.914;-0.982;2023-04-25T05:07:56;101468.53;;;17.63;42.12
53550;BME280;67273;52.914;-0.982;2023-04-25T05:10:51;101465.81;;;17.63;42.18
53550;BME280;67273;52.914;-0.982;2023-04-25T05:13:44;101471.25;;;17.63;42.08
53550;BME280;67273;52.914;-0.982;2023-04-25T05:16:37;101470.63;;;17.61;42.08
53550;BME280;67273;52.914;-0.982;2023-04-25T05:19:21;101468.53;;;17.63;42.08
53550;BME280;67273;52.914;-0.982;2023-04-25T05:22:13;101459.75;;;17.61;42.04
53550;BME280;67273;52.914;-0.982;2023-04-25T05:25:14;101461.66;;;17.61;42.15
53550;BME280;67273;52.914;-0.982;2023-04-25T05:28:00;101465.41;;;17.60;42.05
53550;BME280;67273;52.914;-0.982;2023-04-25T05:30:48;101464.56;;;17.59;42.28
53550;BME280;67273;52.914;-0.982;2023-04-25T05:33:21;101465.59;;;17.58;42.06
53550;BME280;67273;52.914;-0.982;2023-04-25T05:35:46;101466.69;;;17.57;42.35
53550;BME280;67273;52.914;-0.982;2023-04-25T05:38:13;101462.06;;;17.58;42.04
53550;BME280;67273;52.914;-0.982;2023-04-25T05:40:58;101462.06;;;17.58;42.21
53550;BME280;67273;52.914;-0.982;2023-04-25T05:43:56;101458.72;;;17.56;42.05
53550;BME280;67273;52.914;-0.982;2023-04-25T05:46:31;101457.66;;;17.63;42.82
53550;BME280;67273;52.914;-0.982;2023-04-25T05:49:20;101461.84;;;17.59;43.02
53550;BME280;67273;52.914;-0.982;2023-04-25T05:52:04;101468.31;;;17.58;43.08
53550;BME280;67273;52.914;-0.982;2023-04-25T05:54:52;101484.63;;;17.58;42.92
53550;BME280;67273;52.914;-0.982;2023-04-25T05:57:20;101475.84;;;17.56;43.01
53550;BME280;67273;52.914;-0.982;2023-04-25T05:59:46;101479.63;;;17.55;42.71
53550;BME280;67273;52.914;-0.982;2023-04-25T06:02:14;101474.22;;;17.55;42.71
53550;BME280;67273;52.914;-0.982;2023-04-25T06:04:41;101476.91;;;17.55;42.65
53550;BME280;67273;52.914;-0.982;2023-04-25T06:07:07;101485.06;;;17.55;42.75
53550;BME280;67273;52.914;-0.982;2023-04-25T06:09:34;101482.56;;;17.54;42.69
53550;BME280;67273;52.914;-0.982;2023-04-25T06:12:00;101488.81;;;17.54;42.54
53550;BME280;67273;52.914;-0.982;2023-04-25T06:14:27;101487.13;;;17.53;42.83
53550;BME280;67273;52.914;-0.982;2023-04-25T06:16:52;101488.81;;;17.54;42.97
53550;BME280;67273;52.914;-0.982;2023-04-25T06:19:20;101480.06;;;17.52;42.92
53550;BME280;67273;52.914;-0.982;2023-04-25T06:21:45;101481.72;;;17.53;42.74
53550;BME280;67273;52.914;-0.982;2023-04-25T06:24:11;101491.75;;;17.53;42.71
53550;BME280;67273;52.914;-0.982;2023-04-25T06:26:38;101490.91;;;17.52;42.76
53550;BME280;67273;52.914;-0.982;2023-04-25T06:29:04;101497.19;;;17.53;42.61
53550;BME280;67273;52.914;-0.982;2023-04-25T06:31:30;101500.94;;;17.52;42.82
53550;BME280;67273;52.914;-0.982;2023-04-25T06:33:59;101499.28;;;17.51;42.59
53550;BME280;67273;52.914;-0.982;2023-04-25T06:36:28;101500.09;;;17.51;42.65
53550;BME280;67273;52.914;-0.982;2023-04-25T06:39:00;101509.31;;;17.50;42.68
53550;BME280;67273;52.914;-0.982;2023-04-25T06:41:25;101509.53;;;17.48;42.69
53550;BME280;67273;52.914;-0.982;2023-04-25T06:43:53;101512.03;;;17.50;42.57
53550;BME280;67273;52.914;-0.982;2023-04-25T06:46:35;101509.31;;;17.50;42.57
53550;BME280;67273;52.914;-0.982;2023-04-25T06:49:01;101511.38;;;17.48;42.42
53550;BME280;67273;52.914;-0.982;2023-04-25T06:51:28;101520.41;;;17.48;42.53
53550;BME280;67273;52.914;-0.982;2023-04-25T06:53:56;101530.19;;;17.49;42.35
53550;BME280;67273;52.914;-0.982;2023-04-25T06:56:35;101537.72;;;17.47;42.63
53550;BME280;67273;52.914;-0.982;2023-04-25T06:59:10;101537.72;;;17.47;42.55
53550;BME280;67273;52.914;-0.982;2023-04-25T07:01:38;101535.22;;;17.46;42.34
53550;BME280;67273;52.914;-0.982;2023-04-25T07:04:09;101529.16;;;17.44;42.13
53550;BME280;67273;52.914;-0.982;2023-04-25T07:06:41;101526.44;;;17.44;41.83
53550;BME280;67273;52.914;-0.982;2023-04-25T07:09:09;101525.22;;;17.40;41.84
53550;BME280;67273;52.914;-0.982;2023-04-25T07:11:35;101525.22;;;17.20;40.89
53550;BME280;67273;52.914;-0.982;2023-04-25T07:14:01;101529.78;;;17.26;41.01
53550;BME280;67273;52.914;-0.982;2023-04-25T07:16:27;101528.13;;;17.32;41.06
53550;BME280;67273;52.914;-0.982;2023-04-25T07:18:54;101531.47;;;17.34;41.32
53550;BME280;67273;52.914;-0.982;2023-04-25T07:21:19;101526.88;;;17.34;41.36
53550;BME280;67273;52.914;-0.982;2023-04-25T07:23:49;101526.88;;;17.34;41.67
53550;BME280;67273;52.914;-0.982;2023-04-25T07:26:18;101525.19;;;17.33;41.75
53550;BME280;67273;52.914;-0.982;2023-04-25T07:29:03;101534.16;;;17.34;41.54
53550;BME280;67273;52.914;-0.982;2023-04-25T07:31:29;101537.75;;;17.34;41.43
53550;BME280;67273;52.914;-0.982;2023-04-25T07:33:55;101544.84;;;17.35;41.60
53550;BME280;67273;52.914;-0.982;2023-04-25T07:36:20;101548.41;;;17.36;41.77
53550;BME280;67273;52.914;-0.982;2023-04-25T07:38:46;101550.25;;;17.35;41.58
53550;BME280;67273;52.914;-0.982;2023-04-25T07:41:14;101550.25;;;17.35;41.73
53550;BME280;67273;52.914;-0.982;2023-04-25T07:43:40;101554.88;;;17.35;41.75
53550;BME280;67273;52.914;-0.982;2023-04-25T07:46:06;101554.88;;;17.35;41.67
53550;BME280;67273;52.914;-0.982;2023-04-25T07:48:34;101561.13;;;17.35;41.70
53550;BME280;67273;52.914;-0.982;2023-04-25T07:51:01;101555.91;;;17.34;41.79
53550;BME280;67273;52.914;-0.982;2023-04-25T07:53:28;101559.47;;;17.34;41.63
53550;BME280;67273;52.914;-0.982;2023-04-25T07:55:59;101571.16;;;17.35;41.90
53550;BME280;67273;52.914;-0.982;2023-04-25T07:58:26;101561.34;;;17.34;41.84
53550;BME280;67273;52.914;-0.982;2023-04-25T08:00:56;101571.16;;;17.35;41.93
53550;BME280;67273;52.914;-0.982;2023-04-25T08:03:42;101565.75;;;17.35;41.84
53550;BME280;67273;52.914;-0.982;2023-04-25T08:06:14;101563.03;;;17.35;41.79
53550;BME280;67273;52.914;-0.982;2023-04-25T08:08:49;101568.66;;;17.33;41.83
53550;BME280;67273;52.914;-0.982;2023-04-25T08:11:18;101574.91;;;17.34;41.75
53550;BME280;67273;52.914;-0.982;2023-04-25T08:13:45;101571.16;;;17.35;41.85
53550;BME280;67273;52.914;-0.982;2023-04-25T08:16:12;101573.06;;;17.34;41.81
53550;BME280;67273;52.914;-0.982;2023-04-25T08:18:37;101580.34;;;17.34;41.86
53550;BME280;67273;52.914;-0.982;2023-04-25T08:21:03;101582.03;;;17.35;41.92
53550;BME280;67273;52.914;-0.982;2023-04-25T08:23:29;101584.75;;;17.35;41.84
53550;BME280;67273;52.914;-0.982;2023-04-25T08:26:02;101592.91;;;17.35;41.99
53550;BME280;67273;52.914;-0.982;2023-04-25T08:28:29;101591.22;;;17.34;41.88
53550;BME280;67273;52.914;-0.982;2023-04-25T08:30:59;101597.06;;;17.37;42.38
53550;BME280;67273;52.914;-0.982;2023-04-25T08:33:29;101603.75;;;17.35;42.10
53550;BME280;67273;52.914;-0.982;2023-04-25T08:36:00;101610.22;;;17.34;42.37
53550;BME280;67273;52.914;-0.982;2023-04-25T08:38:29;101609.19;;;17.35;42.20
53550;BME280;67273;52.914;-0.982;2023-04-25T08:40:56;101603.75;;;17.35;42.12
53550;BME280;67273;52.914;-0.982;2023-04-25T08:43:25;101604.59;;;17.35;42.03
53550;BME280;67273;52.914;-0.982;2023-04-25T08:45:52;101606.47;;;17.35;42.05
53550;BME280;67273;52.914;-0.982;2023-04-25T08:48:33;101618.19;;;17.35;42.15
53550;BME280;67273;52.914;-0.982;2023-04-25T08:51:02;101617.34;;;17.35;41.95
53550;BME280;67273;52.914;-0.982;2023-04-25T08:53:31;101603.75;;;17.35;42.04
53550;BME280;67273;52.914;-0.982;2023-04-25T08:56:00;101612.94;;;17.34;41.94
53550;BME280;67273;52.914;-0.982;2023-04-25T08:58:34;101610.88;;;17.36;42.01
53550;BME280;67273;52.914;-0.982;2023-04-25T09:01:00;101613.81;;;17.34;41.85
53550;BME280;67273;52.914;-0.982;2023-04-25T09:03:29;101619.25;;;17.34;41.91
53550;BME280;67273;52.914;-0.982;2023-04-25T09:05:56;101621.09;;;17.34;41.96
53550;BME280;67273;52.914;-0.982;2023-04-25T09:08:25;101616.53;;;17.34;42.03
53550;BME280;67273;52.914;-0.982;2023-04-25T09:10:52;101620.88;;;17.35;41.73
53550;BME280;67273;52.914;-0.982;2023-04-25T09:13:25;101625.50;;;17.35;41.80
53550;BME280;67273;52.914;-0.982;2023-04-25T09:16:17;101617.56;;;17.33;41.92
53550;BME280;67273;52.914;-0.982;2023-04-25T09:19:05;101616.53;;;17.34;41.89
53550;BME280;67273;52.914;-0.982;2023-04-25T09:21:35;101613.81;;;17.34;41.84
53550;BME280;67273;52.914;-0.982;2023-04-25T09:24:02;101610.03;;;17.35;41.80
53550;BME280;67273;52.914;-0.982;2023-04-25T09:26:28;101605.44;;;17.36;41.64
53550;BME280;67273;52.914;-0.982;2023-04-25T09:29:05;101619.03;;;17.36;41.85
53550;BME280;67273;52.914;-0.982;2023-04-25T09:31:33;101614.63;;;17.35;41.98
53550;BME280;67273;52.914;-0.982;2023-04-25T09:34:01;101606.69;;;17.33;41.76
53550;BME280;67273;52.914;-0.982;2023-04-25T09:36:29;101611.28;;;17.33;41.78
53550;BME280;67273;52.914;-0.982;2023-04-25T09:39:15;101611.09;;;17.34;41.90
53550;BME280;67273;52.914;-0.982;2023-04-25T09:41:46;101608.38;;;17.34;41.75
53550;BME280;67273;52.914;-0.982;2023-04-25T09:44:13;101612.94;;;17.34;41.73
53550;BME280;67273;52.914;-0.982;2023-04-25T09:46:41;101609.19;;;17.35;41.77
53550;BME280;67273;52.914;-0.982;2023-04-25T09:49:15;101612.94;;;17.34;41.83
53550;BME280;67273;52.914;-0.982;2023-04-25T09:51:54;101601.25;;;17.33;41.68
53550;BME280;67273;52.914;-0.982;2023-04-25T09:54:22;101609.19;;;17.35;41.78
53550;BME280;67273;52.914;-0.982;2023-04-25T09:56:53;101606.28;;;17.36;42.11
53550;BME280;67273;52.914;-0.982;2023-04-25T09:59:20;101606.47;;;17.35;42.16
53550;BME280;67273;52.914;-0.982;2023-04-25T10:01:48;101609.19;;;17.35;42.14
53550;BME280;67273;52.914;-0.982;2023-04-25T10:04:25;101610.88;;;17.36;41.98
53550;BME280;67273;52.914;-0.982;2023-04-25T10:07:20;101604.38;;;17.37;42.21
53550;BME280;67273;52.914;-0.982;2023-04-25T10:09:49;101605.44;;;17.36;42.27
53550;BME280;67273;52.914;-0.982;2023-04-25T10:12:17;101612.53;;;17.37;42.27
53550;BME280;67273;52.914;-0.982;2023-04-25T10:14:44;101614.22;;;17.38;42.28
53550;BME280;67273;52.914;-0.982;2023-04-25T10:17:10;101612.53;;;17.37;42.09
53550;BME280;67273;52.914;-0.982;2023-04-25T10:19:36;101609.00;;;17.36;42.07
53550;BME280;67273;52.914;-0.982;2023-04-25T10:22:08;101606.28;;;17.36;42.16
53550;BME280;67273;52.914;-0.982;2023-04-25T10:24:37;101611.50;;;17.38;42.10
53550;BME280;67273;52.914;-0.982;2023-04-25T10:27:05;101608.78;;;17.38;41.83
53550;BME280;67273;52.914;-0.982;2023-04-25T10:29:31;101601.66;;;17.37;41.86
53550;BME280;67273;52.914;-0.982;2023-04-25T10:31:57;101600.66;;;17.38;41.76
53550;BME280;67273;52.914;-0.982;2023-04-25T10:34:24;101612.13;;;17.40;42.01
53550;BME280;67273;52.914;-0.982;2023-04-25T10:37:02;101609.63;;;17.38;41.94
53550;BME280;67273;52.914;-0.982;2023-04-25T10:39:29;101615.06;;;17.38;42.01
53550;BME280;67273;52.914;-0.982;2023-04-25T10:41:56;101615.06;;;17.38;41.72
53550;BME280;67273;52.914;-0.982;2023-04-25T10:44:26;101613.16;;;17.39;41.78
53550;BME280;67273;52.914;-0.982;2023-04-25T10:46:52;101610.44;;;17.39;41.75
53550;BME280;67273;52.914;-0.982;2023-04-25T10:49:29;101610.44;;;17.39;41.78
53550;BME280;67273;52.914;-0.982;2023-04-25T10:52:18;101607.72;;;17.39;41.54
53550;BME280;67273;52.914;-0.982;2023-04-25T10:54:48;101614.22;;;17.38;41.58
53550;BME280;67273;52.914;-0.982;2023-04-25T10:57:30;101618.78;;;17.37;42.00
53550;BME280;67273;52.914;-0.982;2023-04-25T11:00:00;101609.63;;;17.38;41.77
53550;BME280;67273;52.914;-0.982;2023-04-25T11:02:26;101609.63;;;17.38;41.33
53550;BME280;67273;52.914;-0.982;2023-04-25T11:04:53;101612.13;;;17.40;41.60
53550;BME280;67273;52.914;-0.982;2023-04-25T11:07:25;101610.44;;;17.39;41.73
53550;BME280;67273;52.914;-0.982;2023-04-25T11:09:51;101618.59;;;17.39;41.59
53550;BME280;67273;52.914;-0.982;2023-04-25T11:12:17;101617.56;;;17.40;41.34
53550;BME280;67273;52.914;-0.982;2023-04-25T11:14:43;101609.41;;;17.40;41.66
53550;BME280;67273;52.914;-0.982;2023-04-25T11:17:10;101612.13;;;17.40;41.66
53550;BME280;67273;52.914;-0.982;2023-04-25T11:19:36;101623.00;;;17.40;41.63
53550;BME280;67273;52.914;-0.982;2023-04-25T11:22:03;101612.13;;;17.40;41.83
53550;BME280;67273;52.914;-0.982;2023-04-25T11:24:30;101612.13;;;17.40;41.62
53550;BME280;67273;52.914;-0.982;2023-04-25T11:26:57;101596.88;;;17.39;41.50
53550;BME280;67273;52.914;-0.982;2023-04-25T11:29:23;101602.09;;;17.40;41.69
53550;BME280;67273;52.914;-0.982;2023-04-25T11:31:52;101601.25;;;17.40;41.57
53550;BME280;67273;52.914;-0.982;2023-04-25T11:34:19;101597.50;;;17.41;41.40
53550;BME280;67273;52.914;-0.982;2023-04-25T11:36:45;101594.78;;;17.41;41.59
53550;BME280;67273;52.914;-0.982;2023-04-25T11:39:11;101590.19;;;17.41;41.49
53550;BME280;67273;52.914;-0.982;2023-04-25T11:41:37;101593.75;;;17.42;41.62
53550;BME280;67273;52.914;-0.982;2023-04-25T11:44:03;101592.91;;;17.41;41.53
53550;BME280;67273;52.914;-0.982;2023-04-25T11:46:29;101575.56;;;17.42;41.46
53550;BME280;67273;52.914;-0.982;2023-04-25T11:48:55;101588.31;;;17.42;41.45
53550;BME280;67273;52.914;-0.982;2023-04-25T11:51:22;101588.94;;;17.44;41.45
53550;BME280;67273;52.914;-0.982;2023-04-25T11:53:48;101585.59;;;17.42;41.40
53550;BME280;67273;52.914;-0.982;2023-04-25T11:56:14;101588.31;;;17.42;41.49
53550;BME280;67273;52.914;-0.982;2023-04-25T11:58:56;101588.31;;;17.42;41.59
53550;BME280;67273;52.914;-0.982;2023-04-25T12:01:26;101582.88;;;17.42;41.32
53550;BME280;67273;52.914;-0.982;2023-04-25T12:03:52;101585.59;;;17.42;41.28
53550;BME280;67273;52.914;-0.982;2023-04-25T12:06:18;101582.88;;;17.42;41.39
53550;BME280;67273;52.914;-0.982;2023-04-25T12:11:42;101579.13;;;17.43;41.45
53550;BME280;67273;52.914;-0.982;2023-04-25T12:14:09;101588.31;;;17.42;41.45
53550;BME280;67273;52.914;-0.982;2023-04-25T12:16:41;101582.88;;;17.42;41.37
53550;BME280;67273;52.914;-0.982;2023-04-25T12:19:07;101583.69;;;17.42;41.37
53550;BME280;67273;52.914;-0.982;2023-04-25T12:21:33;101589.13;;;17.42;41.38
53550;BME280;67273;52.914;-0.982;2023-04-25T12:24:09;101583.69;;;17.42;41.25
53550;BME280;67273;52.914;-0.982;2023-04-25T12:26:47;101579.13;;;17.43;41.36
53550;BME280;67273;52.914;-0.982;2023-04-25T12:29:16;101586.22;;;17.44;41.19
53550;BME280;67273;52.914;-0.982;2023-04-25T12:31:41;101591.66;;;17.44;41.25
53550;BME280;67273;52.914;-0.982;2023-04-25T12:34:07;101595.44;;;17.43;41.46
53550;BME280;67273;52.914;-0.982;2023-04-25T12:36:33;101591.66;;;17.44;41.26
53550;BME280;67273;52.914;-0.982;2023-04-25T12:38:59;101597.09;;;17.44;41.39
53550;BME280;67273;52.914;-0.982;2023-04-25T12:41:29;101600.63;;;17.44;41.36
53550;BME280;67273;52.914;-0.982;2023-04-25T12:43:56;101599.59;;;17.45;41.69
53550;BME280;67273;52.914;-0.982;2023-04-25T12:46:22;101591.25;;;17.47;41.38
53550;BME280;67273;52.914;-0.982;2023-04-25T12:48:50;101604.63;;;17.48;41.06
53550;BME280;67273;52.914;-0.982;2023-04-25T12:51:16;101595.59;;;17.48;41.46
53550;BME280;67273;52.914;-0.982;2023-04-25T12:53:42;101597.28;;;17.49;41.40
53550;BME280;67273;52.914;-0.982;2023-04-25T12:56:07;101595.41;;;17.49;41.25
53550;BME280;67273;52.914;-0.982;2023-04-25T12:58:33;101596.25;;;17.50;41.39